Time;durP1;ratioP1;P1;durP2;ratioP2;P2;SDS_P1;SDS_P2;PMS_P1;PMS_P2;Temp;Humidity;BMP_temperature;BMP_pressure;BME280_temperature;BME280_humidity;BME280_pressure;Samples;Min_cycle;Max_cycle;Signal;HPM_P1;HPM_P2
2021/01/12 00:02:25;;;;;;;23.80;14.85;;;;;;;5.74;100.00;100627.97;5022662;28;20070;-63
2021/01/12 00:04:51;;;;;;;23.17;14.15;;;;;;;5.79;100.00;100617.81;5024630;28;20041;-63
2021/01/12 00:07:19;;;;;;;28.48;14.80;;;;;;;5.78;100.00;100610.75;5023650;28;20073;-64
2021/01/12 00:09:45;;;;;;;25.92;14.93;;;;;;;5.78;100.00;100594.75;5022520;28;20453;-63
2021/01/12 00:12:11;;;;;;;28.77;15.60;;;;;;;5.81;100.00;100583.81;5021529;28;20064;-64
2021/01/12 00:14:38;;;;;;;30.48;14.00;;;;;;;5.84;100.00;100588.94;5023007;28;20052;-63
2021/01/12 00:17:06;;;;;;;23.40;14.07;;;;;;;5.84;100.00;100583.59;5021402;28;20645;-64
2021/01/12 00:19:33;;;;;;;24.70;13.73;;;;;;;5.85;100.00;100579.97;5021366;28;20515;-63
2021/01/12 00:21:59;;;;;;;23.00;12.25;;;;;;;5.86;100.00;100571.00;5022619;28;20057;-63
2021/01/12 00:24:25;;;;;;;24.48;13.25;;;;;;;5.87;100.00;100564.69;5023049;28;20052;-63
2021/01/12 00:26:51;;;;;;;19.08;13.32;;;;;;;5.90;100.00;100568.94;5025155;28;20057;-64
2021/01/12 00:29:17;;;;;;;22.70;11.73;;;;;;;5.93;100.00;100553.56;5021925;28;20457;-64
2021/01/12 00:31:45;;;;;;;21.73;11.93;;;;;;;5.96;100.00;100541.78;5022682;28;20049;-64
2021/01/12 00:34:12;;;;;;;21.08;12.52;;;;;;;5.95;100.00;100538.25;5021633;28;20053;-64
2021/01/12 00:36:40;;;;;;;24.17;12.77;;;;;;;5.94;100.00;100543.72;5023585;28;20038;-64
2021/01/12 00:39:06;;;;;;;21.58;12.50;;;;;;;5.93;100.00;100550.03;5020802;28;20137;-64
2021/01/12 00:41:32;;;;;;;22.30;13.30;;;;;;;5.90;100.00;100527.09;5023437;28;20500;-63
2021/01/12 00:43:58;;;;;;;23.08;12.55;;;;;;;5.89;100.00;100537.84;5021899;28;20092;-63
2021/01/12 00:46:24;;;;;;;27.90;16.38;;;;;;;5.86;100.00;100525.59;5019832;28;20053;-63
2021/01/12 00:48:51;;;;;;;27.63;13.52;;;;;;;5.88;100.00;100525.50;5023318;28;20385;-63
2021/01/12 00:51:17;;;;;;;24.45;13.38;;;;;;;5.85;100.00;100521.22;5021961;28;20054;-63
2021/01/12 00:53:43;;;;;;;19.20;13.48;;;;;;;5.88;100.00;100525.50;5022382;28;20064;-63
2021/01/12 00:56:13;;;;;;;23.88;15.13;;;;;;;5.85;100.00;100513.19;5021041;28;20124;-63
2021/01/12 00:58:39;;;;;;;23.23;14.68;;;;;;;5.84;100.00;100508.81;5022978;28;20049;-63
2021/01/12 01:01:05;;;;;;;24.52;15.43;;;;;;;5.83;100.00;100501.78;5020028;28;20054;-63
2021/01/12 01:03:31;;;;;;;24.70;15.63;;;;;;;5.86;100.00;100512.25;5022742;28;20056;-64
2021/01/12 01:05:58;;;;;;;25.38;17.05;;;;;;;5.81;100.00;100508.22;5022816;28;20054;-63
2021/01/12 01:08:24;;;;;;;31.98;17.38;;;;;;;5.83;100.00;100499.13;5021604;28;20053;-63
2021/01/12 01:10:50;;;;;;;26.00;17.35;;;;;;;5.83;100.00;100491.13;5021290;28;20060;-64
2021/01/12 01:13:16;;;;;;;24.73;17.88;;;;;;;5.81;100.00;100486.84;5021474;28;20054;-63
2021/01/12 01:15:42;;;;;;;25.77;16.38;;;;;;;5.83;100.00;100482.22;5022855;28;20049;-63
2021/01/12 01:18:08;;;;;;;26.70;16.75;;;;;;;5.82;100.00;100480.53;5020977;28;20050;-64
2021/01/12 01:20:34;;;;;;;26.10;16.42;;;;;;;5.82;100.00;100468.03;5022226;28;20438;-63
2021/01/12 01:23:01;;;;;;;25.40;15.77;;;;;;;5.81;100.00;100466.31;5023197;28;20057;-63
2021/01/12 01:25:27;;;;;;;24.88;16.77;;;;;;;5.81;100.00;100462.81;5018822;28;20053;-63
2021/01/12 01:27:53;;;;;;;28.42;16.80;;;;;;;5.82;100.00;100462.69;5021137;28;20058;-63
2021/01/12 01:30:20;;;;;;;26.52;15.27;;;;;;;5.84;100.00;100466.09;5019257;28;20502;-63
2021/01/12 01:32:46;;;;;;;23.30;14.35;;;;;;;5.83;100.00;100453.72;5021526;28;20046;-63
2021/01/12 01:35:12;;;;;;;24.25;14.25;;;;;;;5.87;100.00;100457.84;5019432;28;20062;-63
2021/01/12 01:37:38;;;;;;;26.75;13.82;;;;;;;5.88;100.00;100448.03;5020232;28;20471;-63
2021/01/12 01:40:07;;;;;;;20.58;14.48;;;;;;;5.89;100.00;100436.34;5019412;28;20058;-63
2021/01/12 01:42:35;;;;;;;21.95;13.20;;;;;;;5.88;100.00;100438.19;5018225;28;20038;-63
2021/01/12 01:45:01;;;;;;;21.33;12.50;;;;;;;5.91;100.00;100440.63;5017201;28;20042;-64
2021/01/12 01:49:53;;;;;;;17.67;13.13;;;;;;;5.88;100.00;100435.50;5021213;23;20461;-63
2021/01/12 01:52:20;;;;;;;20.85;13.52;;;;;;;5.89;100.00;100433.69;5018247;28;20049;-63
2021/01/12 01:54:45;;;;;;;19.17;12.98;;;;;;;5.90;100.00;100430.94;5020018;28;20052;-63
2021/01/12 01:57:12;;;;;;;21.38;13.68;;;;;;;5.94;100.00;100431.53;5019428;28;20042;-63
2021/01/12 01:59:38;;;;;;;21.13;13.02;;;;;;;5.90;100.00;100422.91;5016717;28;20049;-63
2021/01/12 02:02:06;;;;;;;20.33;14.18;;;;;;;5.96;100.00;100422.44;5016794;28;20458;-63
2021/01/12 02:04:37;;;;;;;19.17;13.07;;;;;;;5.97;100.00;100418.81;5017373;28;20061;-63
2021/01/12 02:07:03;;;;;;;18.15;12.98;;;;;;;5.99;100.00;100421.34;5020782;28;20080;-63
2021/01/12 02:09:36;;;;;;;17.85;12.20;;;;;;;6.00;100.00;100416.88;5018163;28;20092;-64
2021/01/12 02:12:07;;;;;;;18.13;11.35;;;;;;;6.04;100.00;100408.53;5019499;28;20068;-63
2021/01/12 02:14:39;;;;;;;18.83;12.77;;;;;;;6.04;100.00;100408.53;5018930;28;20514;-63
2021/01/12 02:17:07;;;;;;;15.50;10.77;;;;;;;6.06;100.00;100411.91;5019207;28;20045;-63
2021/01/12 02:19:33;;;;;;;21.90;12.27;;;;;;;6.10;100.00;100410.72;5022340;28;20045;-63
2021/01/12 02:22:02;;;;;;;16.52;10.48;;;;;;;6.13;100.00;100413.16;5020368;28;20041;-64
2021/01/12 02:24:30;;;;;;;17.10;10.35;;;;;;;6.16;100.00;100406.72;5018091;28;20480;-63
2021/01/12 02:26:56;;;;;;;21.80;10.80;;;;;;;6.17;100.00;100408.44;5011754;28;20065;-64
2021/01/12 02:29:22;;;;;;;19.60;10.85;;;;;;;6.20;100.00;100396.63;5019358;28;20054;-63
2021/01/12 02:31:49;;;;;;;18.67;10.82;;;;;;;6.21;100.00;100407.19;5019632;28;20380;-64
2021/01/12 02:34:17;;;;;;;21.92;11.60;;;;;;;6.23;100.00;100391.91;5019104;28;20634;-63
2021/01/12 02:36:44;;;;;;;18.98;10.93;;;;;;;6.21;100.00;100385.81;5011412;28;20049;-63
2021/01/12 02:39:11;;;;;;;20.08;10.80;;;;;;;6.24;100.00;100384.75;5016413;28;20491;-63
2021/01/12 02:41:37;;;;;;;17.42;10.20;;;;;;;6.28;100.00;100379.03;5017025;28;20052;-63
2021/01/12 02:44:04;;;;;;;18.95;10.85;;;;;;;6.26;100.00;100380.97;5014391;28;20047;-63
2021/01/12 02:46:30;;;;;;;23.60;11.45;;;;;;;6.30;100.00;100365.53;5013800;28;20045;-63
2021/01/12 02:48:56;;;;;;;19.88;10.20;;;;;;;6.26;100.00;100364.94;5015931;28;21868;-63
2021/01/12 02:51:22;;;;;;;21.00;9.57;;;;;;;6.28;100.00;100365.66;5000178;28;539735;-63
2021/01/12 02:53:48;;;;;;;25.20;9.70;;;;;;;6.35;100.00;100365.22;5011758;28;20057;-64
2021/01/12 02:56:22;;;;;;;18.67;9.23;;;;;;;6.35;100.00;100367.88;5021026;28;20461;-63
2021/01/12 02:58:48;;;;;;;14.82;7.10;;;;;;;6.40;100.00;100360.34;5020375;28;20095;-63
2021/01/12 03:01:14;;;;;;;18.60;7.15;;;;;;;6.40;100.00;100354.97;5019823;28;20046;-63
2021/01/12 03:03:40;;;;;;;16.90;7.38;;;;;;;6.45;100.00;100358.16;5020016;28;20110;-63
2021/01/12 03:06:06;;;;;;;28.05;6.35;;;;;;;6.46;100.00;100346.47;5018415;28;20497;-63
2021/01/12 03:08:32;;;;;;;12.13;5.72;;;;;;;6.45;100.00;100345.63;5011522;28;20048;-63
2021/01/12 03:10:58;;;;;;;14.50;5.80;;;;;;;6.48;100.00;100341.88;5019928;28;20530;-64
2021/01/12 03:13:24;;;;;;;16.45;5.78;;;;;;;6.51;100.00;100336.28;5017347;28;20510;-63
2021/01/12 03:15:51;;;;;;;15.48;5.72;;;;;;;6.53;100.00;100334.31;5048358;23;20427;-63
2021/01/12 03:18:17;;;;;;;15.65;4.90;;;;;;;6.58;100.00;100341.97;5019874;28;20376;-64
2021/01/12 03:20:43;;;;;;;19.27;5.60;;;;;;;6.59;100.00;100338.34;5021273;28;20084;-63
2021/01/12 03:23:09;;;;;;;16.75;4.90;;;;;;;6.57;100.00;100338.47;5020538;28;20049;-63
2021/01/12 03:25:35;;;;;;;21.77;5.40;;;;;;;6.54;100.00;100325.34;5019599;28;20053;-64
2021/01/12 03:28:01;;;;;;;16.42;5.05;;;;;;;6.53;100.00;100330.81;5019343;28;20049;-63
2021/01/12 03:30:26;;;;;;;13.93;5.03;;;;;;;6.51;100.00;100324.72;5019881;28;20057;-63
2021/01/12 03:32:54;;;;;;;15.77;4.40;;;;;;;6.55;100.00;100320.81;5019919;28;20110;-63
2021/01/12 03:35:21;;;;;;;13.75;4.65;;;;;;;6.57;100.00;100314.38;5017259;28;20046;-64
2021/01/12 03:37:47;;;;;;;17.95;4.25;;;;;;;6.57;100.00;100314.38;5019921;28;20053;-63
2021/01/12 03:40:13;;;;;;;13.70;4.05;;;;;;;6.56;100.00;100311.84;5015979;28;20494;-64
2021/01/12 03:42:39;;;;;;;11.68;4.10;;;;;;;6.59;100.00;100316.94;5015347;28;20054;-63
2021/01/12 03:45:06;;;;;;;16.40;3.45;;;;;;;6.53;100.00;100312.94;5015503;28;20068;-64
2021/01/12 03:47:32;;;;;;;9.90;3.63;;;;;;;6.54;100.00;100309.28;5016162;28;20573;-64
2021/01/12 03:49:59;;;;;;;14.75;3.53;;;;;;;6.53;100.00;100307.59;5016991;28;20054;-63
2021/01/12 03:52:26;;;;;;;12.60;3.78;;;;;;;6.55;100.00;100305.66;5017275;28;20062;-64
2021/01/12 03:54:52;;;;;;;13.70;3.65;;;;;;;6.52;100.00;100297.84;5016924;28;20092;-63
2021/01/12 03:57:18;;;;;;;14.65;4.03;;;;;;;6.49;100.00;100301.66;5016769;28;20489;-63
2021/01/12 03:59:44;;;;;;;9.98;3.53;;;;;;;6.51;100.00;100296.19;5016277;28;20045;-64
2021/01/12 04:02:11;;;;;;;15.90;4.32;;;;;;;6.48;100.00;100293.75;5015663;28;20046;-63
2021/01/12 04:04:37;;;;;;;12.05;3.67;;;;;;;6.49;100.00;100295.44;5016568;28;20090;-64
2021/01/12 04:07:03;;;;;;;12.73;3.75;;;;;;;6.50;100.00;100289.13;5014915;28;20046;-63
2021/01/12 04:09:29;;;;;;;15.18;4.00;;;;;;;6.48;100.00;100285.72;5017816;28;20053;-64
2021/01/12 04:11:55;;;;;;;8.98;3.22;;;;;;;6.48;100.00;100291.91;5017208;28;20084;-63
2021/01/12 04:14:21;;;;;;;10.55;3.33;;;;;;;6.54;100.00;100276.38;5014119;28;20057;-63
2021/01/12 04:16:49;;;;;;;10.98;3.53;;;;;;;6.50;100.00;100286.44;5019056;28;20056;-63
2021/01/12 04:19:15;;;;;;;15.95;3.63;;;;;;;6.49;100.00;100274.03;5015905;28;20462;-64
2021/01/12 04:21:41;;;;;;;17.45;3.40;;;;;;;6.45;100.00;100272.63;5055544;22;20058;-63
2021/01/12 04:24:08;;;;;;;13.85;4.07;;;;;;;6.46;100.00;100268.94;5055716;28;20093;-63
2021/01/12 04:26:34;;;;;;;12.68;4.10;;;;;;;6.46;100.00;100268.94;5056391;28;20061;-63
2021/01/12 04:29:00;;;;;;;12.43;3.60;;;;;;;6.41;100.00;100258.63;5058143;28;20056;-63
2021/01/12 04:31:26;;;;;;;11.43;3.45;;;;;;;6.40;100.00;100264.94;5055232;28;20136;-63
2021/01/12 04:33:52;;;;;;;17.70;3.72;;;;;;;6.46;100.00;100263.59;5054419;28;20499;-63
2021/01/12 04:36:18;;;;;;;12.65;3.13;;;;;;;6.44;100.00;100263.72;5057024;28;20139;-63
2021/01/12 04:38:44;;;;;;;20.10;3.97;;;;;;;6.41;100.00;100252.44;5054797;28;21500;-63
2021/01/12 04:41:11;;;;;;;15.70;3.40;;;;;;;6.43;100.00;100261.19;5056734;28;20052;-63
2021/01/12 04:43:37;;;;;;;17.20;3.50;;;;;;;6.41;100.00;100253.28;5056337;28;20067;-63
2021/01/12 04:46:03;;;;;;;14.18;3.22;;;;;;;6.39;100.00;100252.56;5058558;28;20476;-64
2021/01/12 04:48:29;;;;;;;20.42;3.63;;;;;;;6.44;100.00;100249.53;5060728;28;20040;-64
2021/01/12 04:51:02;;;;;;;13.88;3.58;;;;;;;6.46;100.00;100243.09;5061187;28;20052;-64
2021/01/12 04:53:37;;;;;;;12.93;3.85;;;;;;;6.43;100.00;100246.00;5059759;28;20147;-63
2021/01/12 04:56:03;;;;;;;6.70;3.00;;;;;;;6.45;100.00;100240.53;5061199;28;20075;-63
2021/01/12 04:58:39;;;;;;;13.93;4.00;;;;;;;6.41;100.00;100234.56;5060841;28;20045;-63
2021/01/12 05:01:08;;;;;;;9.55;4.00;;;;;;;6.45;100.00;100244.06;5058706;28;20060;-64
2021/01/12 05:03:34;;;;;;;12.98;4.00;;;;;;;6.41;100.00;100233.75;5059950;28;20063;-64
2021/01/12 05:06:01;;;;;;;14.43;3.70;;;;;;;6.39;100.00;100235.66;5059882;28;20592;-63
2021/01/12 05:08:28;;;;;;;12.98;4.82;;;;;;;6.41;100.00;100236.41;5057268;28;20052;-64
2021/01/12 05:10:57;;;;;;;18.80;4.18;;;;;;;6.42;100.00;100227.38;5062247;28;20044;-63
2021/01/12 05:13:26;;;;;;;15.65;3.70;;;;;;;6.40;100.00;100232.88;5060014;28;20041;-63
2021/01/12 05:15:53;;;;;;;11.35;3.60;;;;;;;6.42;100.00;100235.41;5059800;28;20230;-64
2021/01/12 05:18:20;;;;;;;12.45;3.05;;;;;;;6.40;100.00;100226.69;5060075;28;20548;-64
2021/01/12 05:20:49;;;;;;;10.25;3.40;;;;;;;6.39;100.00;100228.50;5062377;28;20036;-63
2021/01/12 05:23:22;;;;;;;10.07;2.92;;;;;;;6.38;100.00;100228.63;5060639;28;20508;-64
2021/01/12 05:25:50;;;;;;;7.35;3.00;;;;;;;6.36;100.00;100227.91;5061628;28;20052;-64
2021/01/12 05:28:17;;;;;;;7.18;3.20;;;;;;;6.35;100.00;100231.56;5060866;28;20048;-64
2021/01/12 05:30:43;;;;;;;16.88;7.70;;;;;;;6.37;100.00;100242.97;5061678;28;20128;-64
2021/01/12 05:33:17;;;;;;;18.27;8.30;;;;;;;6.32;100.00;100241.50;5059872;28;20098;-63
2021/01/12 05:35:46;;;;;;;10.27;3.67;;;;;;;6.25;100.00;100234.97;5059166;28;20041;-64
2021/01/12 05:38:24;;;;;;;6.57;3.00;;;;;;;6.24;100.00;100230.63;5060134;28;20052;-64
2021/01/12 05:40:54;;;;;;;8.98;3.20;;;;;;;6.17;100.00;100234.75;5059913;28;20129;-64
2021/01/12 05:43:20;;;;;;;10.27;3.17;;;;;;;6.15;100.00;100234.00;5058937;28;20057;-63
2021/01/12 05:45:46;;;;;;;10.57;3.53;;;;;;;6.14;100.00;100232.31;5060045;28;20053;-63
2021/01/12 05:48:13;;;;;;;6.57;2.75;;;;;;;6.08;100.00;100232.78;5060255;28;20158;-65
2021/01/12 05:50:40;;;;;;;9.60;3.00;;;;;;;6.07;100.00;100236.44;5060886;28;20044;-64
2021/01/12 05:53:13;;;;;;;9.88;2.50;;;;;;;6.08;100.00;100232.78;5061234;28;20056;-64
2021/01/12 05:55:42;;;;;;;8.60;2.65;;;;;;;6.04;100.00;100234.88;5062652;28;20417;-64
2021/01/12 05:58:15;;;;;;;11.73;2.63;;;;;;;6.02;100.00;100226.13;5056670;28;20052;-64
2021/01/12 06:00:42;;;;;;;7.13;3.13;;;;;;;6.01;100.00;100232.44;5060809;28;20052;-64
2021/01/12 06:03:15;;;;;;;5.97;2.90;;;;;;;6.00;100.00;100229.91;5061154;28;20084;-64
2021/01/12 06:05:44;;;;;;;10.77;2.67;;;;;;;6.00;100.00;100230.75;5058929;28;20127;-64
2021/01/12 06:08:13;;;;;;;5.00;2.60;;;;;;;6.00;100.00;100229.91;5059372;28;20549;-64
2021/01/12 06:10:41;;;;;;;8.10;2.80;;;;;;;5.96;100.00;100235.44;5061331;28;20055;-64
2021/01/12 06:13:12;;;;;;;6.38;2.38;;;;;;;5.97;100.00;100231.81;5059865;28;20071;-64
2021/01/12 06:15:41;;;;;;;6.03;2.55;;;;;;;5.95;100.00;100236.41;5074979;22;20057;-64
2021/01/12 06:18:14;;;;;;;8.73;2.55;;;;;;;5.97;100.00;100237.16;5061596;28;20128;-64
2021/01/12 06:21:18;;;;;;;8.73;2.58;;;;;;;5.96;100.00;100234.59;5061823;28;20040;-64
2021/01/12 06:23:49;;;;;;;13.02;2.75;;;;;;;5.94;100.00;100241.88;5059011;28;20048;-64
2021/01/12 06:26:15;;;;;;;10.63;2.47;;;;;;;5.95;100.00;100244.44;5059113;28;20055;-64
2021/01/12 06:28:42;;;;;;;7.63;2.38;;;;;;;5.97;100.00;100239.84;5060830;28;20107;-64
2021/01/12 06:31:09;;;;;;;10.40;3.13;;;;;;;5.97;100.00;100247.84;5059029;28;20059;-64
2021/01/12 06:33:35;;;;;;;10.70;2.35;;;;;;;5.96;100.00;100262.16;5057002;28;20114;-63
2021/01/12 06:36:02;;;;;;;5.82;2.67;;;;;;;5.97;100.00;100263.88;5058466;28;20692;-63
2021/01/12 06:38:29;;;;;;;10.40;3.30;;;;;;;5.96;100.00;100255.94;5059689;28;20090;-63
2021/01/12 06:40:58;;;;;;;8.02;2.80;;;;;;;5.97;100.00;100258.53;5061440;28;20044;-64
2021/01/12 06:43:25;;;;;;;9.60;3.00;;;;;;;5.99;100.00;100266.44;5058009;28;20048;-63
2021/01/12 06:45:52;;;;;;;11.60;3.10;;;;;;;5.97;100.00;100263.88;5058396;28;20041;-63
2021/01/12 06:48:19;;;;;;;7.82;2.83;;;;;;;5.94;100.00;100269.44;5057746;28;20055;-63
2021/01/12 06:50:47;;;;;;;6.30;2.83;;;;;;;5.95;100.00;100262.28;5058973;28;20044;-63
2021/01/12 06:53:13;;;;;;;15.20;4.00;;;;;;;5.93;100.00;100262.41;5059847;28;20048;-64
2021/01/12 06:55:39;;;;;;;17.05;3.20;;;;;;;5.93;100.00;100275.75;5059018;28;20102;-63
2021/01/12 06:58:08;;;;;;;12.50;4.05;;;;;;;5.95;100.00;100281.00;5057896;28;20107;-64
2021/01/12 07:00:36;;;;;;;11.82;4.07;;;;;;;5.90;100.00;100278.69;5057536;28;20045;-64
2021/01/12 07:03:02;;;;;;;10.52;3.75;;;;;;;5.89;100.00;100294.78;5057285;28;20052;-63
2021/01/12 07:05:36;;;;;;;10.63;4.10;;;;;;;5.84;100.00;100300.50;5056845;28;20465;-64
2021/01/12 07:08:07;;;;;;;7.65;3.28;;;;;;;5.71;100.00;100305.97;5058254;28;20131;-64
2021/01/12 07:10:40;;;;;;;9.43;4.18;;;;;;;5.62;100.00;100306.66;5059635;28;20048;-64
2021/01/12 07:13:07;;;;;;;8.32;2.83;;;;;;;5.59;100.00;100318.44;5059047;28;20057;-64
2021/01/12 07:15:45;;;;;;;5.80;2.63;;;;;;;5.52;100.00;100327.88;5058754;28;20090;-64
2021/01/12 07:18:11;;;;;;;4.57;2.22;;;;;;;5.42;100.00;100326.88;5058193;28;20053;-63
2021/01/12 07:20:38;;;;;;;6.05;2.63;;;;;;;5.34;100.00;100334.59;5059676;28;20457;-63
2021/01/12 07:23:06;;;;;;;6.72;2.25;;;;;;;5.37;100.00;100335.19;5059191;28;20056;-64
2021/01/12 07:25:36;;;;;;;13.80;1.88;;;;;;;5.25;100.00;100339.66;5056043;28;20056;-63
2021/01/12 07:28:05;;;;;;;5.07;2.53;;;;;;;5.28;100.00;100351.91;5055599;28;20052;-65
2021/01/12 07:30:32;;;;;;;7.03;2.08;;;;;;;5.09;100.00;100355.09;5060258;28;20110;-64
2021/01/12 07:32:59;;;;;;;5.35;1.95;;;;;;;5.10;100.00;100370.16;5059058;28;20061;-64
2021/01/12 07:35:26;;;;;;;5.93;2.35;;;;;;;5.06;100.00;100358.00;5055602;28;20404;-64
2021/01/12 07:37:52;;;;;;;5.05;2.30;;;;;;;5.02;100.00;100361.84;5059366;28;20052;-64
2021/01/12 07:40:19;;;;;;;18.83;6.30;;;;;;;5.15;100.00;100373.31;5053708;28;20397;-64
2021/01/12 07:45:35;;;;;;;6.50;2.70;;;;;;;4.95;99.87;100368.59;5065202;22;20658;-64
2021/01/12 07:48:03;;;;;;;9.35;3.00;;;;;;;4.92;99.82;100380.34;5060775;28;20057;-64
2021/01/12 07:50:31;;;;;;;17.45;5.07;;;;;;;4.82;99.95;100393.50;5059136;28;20041;-64
2021/01/12 07:52:57;;;;;;;10.63;2.80;;;;;;;4.86;99.55;100389.63;5055853;28;20052;-63
2021/01/12 07:55:24;;;;;;;11.77;3.70;;;;;;;4.83;99.43;100397.88;5052390;28;20053;-65
2021/01/12 07:57:52;;;;;;;11.63;3.10;;;;;;;4.78;99.80;100404.47;5055370;28;20049;-65
2021/01/12 08:00:19;;;;;;;5.57;1.60;;;;;;;4.78;99.57;100409.81;5058427;28;20052;-64
2021/01/12 08:02:48;;;;;;;8.48;2.28;;;;;;;4.65;99.55;100407.16;5059420;28;20087;-64
2021/01/12 08:05:16;;;;;;;;;;;;;;;4.69;99.70;100414.84;5058146;28;20059;-64
2021/01/12 08:07:42;;;;;;;6.80;1.90;;;;;;;4.80;99.51;100422.09;5060529;28;20373;-64
2021/01/12 08:10:09;;;;;;;7.10;1.80;;;;;;;4.81;99.30;100426.44;5058822;28;20525;-65
2021/01/12 08:12:36;;;;;;;7.68;2.55;;;;;;;4.85;99.10;100429.75;5057478;28;20114;-65
2021/01/12 08:15:10;;;;;;;14.73;2.10;;;;;;;4.90;99.06;100441.78;5058060;28;20064;-66
2021/01/12 08:17:37;;;;;;;7.18;1.90;;;;;;;4.83;98.85;100440.53;5058926;28;20051;-64
2021/01/12 08:20:05;;;;;;;8.63;2.25;;;;;;;4.87;98.80;100458.03;5058478;28;20057;-64
2021/01/12 08:22:31;;;;;;;8.02;2.17;;;;;;;4.92;98.69;100463.03;5063126;28;20489;-65
2021/01/12 08:25:04;;;;;;;7.15;2.33;;;;;;;4.87;98.67;100463.34;5061037;28;20150;-66
2021/01/12 08:27:30;;;;;;;11.48;2.42;;;;;;;4.81;98.60;100463.75;5062612;28;20056;-64
2021/01/12 08:29:59;;;;;;;7.28;2.22;;;;;;;4.88;98.71;100467.69;5062247;28;20040;-64
2021/01/12 08:32:30;;;;;;;8.27;2.57;;;;;;;4.87;98.41;100482.03;5062258;28;20052;-65
2021/01/12 08:34:59;;;;;;;11.45;2.38;;;;;;;4.89;98.31;100485.41;5061967;28;20085;-64
2021/01/12 08:37:27;;;;;;;11.48;3.08;;;;;;;4.83;98.28;100485.84;5062815;28;20053;-64
2021/01/12 08:39:54;;;;;;;12.65;4.50;;;;;;;4.80;98.45;100493.19;5061707;28;20095;-65
2021/01/12 08:42:21;;;;;;;10.15;2.78;;;;;;;4.77;98.39;100499.63;5058311;28;20126;-64
2021/01/12 08:44:48;;;;;;;5.43;1.95;;;;;;;4.80;98.33;100512.75;5058316;28;20060;-64
2021/01/12 08:47:15;;;;;;;14.05;1.50;;;;;;;4.69;98.54;100510.81;5075099;23;20048;-64
2021/01/12 08:49:41;;;;;;;9.43;1.60;;;;;;;4.76;98.62;100510.41;5059368;28;20041;-64
2021/01/12 08:52:07;;;;;;;5.05;1.63;;;;;;;4.72;98.27;100513.25;5061550;28;20056;-64
2021/01/12 08:54:34;;;;;;;6.35;1.80;;;;;;;4.72;98.70;100518.59;5058442;28;20049;-64
2021/01/12 08:57:03;;;;;;;7.38;1.60;;;;;;;4.73;98.88;100522.97;5058617;28;20052;-64
2021/01/12 08:59:31;;;;;;;5.67;1.50;;;;;;;4.77;98.60;100523.63;5058423;28;20049;-64
2021/01/12 09:01:57;;;;;;;5.50;1.35;;;;;;;4.76;98.49;100537.91;5059117;28;20157;-64
2021/01/12 09:04:27;;;;;;;5.68;1.42;;;;;;;4.72;98.64;100547.06;5059491;28;20065;-66
2021/01/12 09:07:04;;;;;;;6.53;1.45;;;;;;;4.73;98.66;100554.13;5059377;28;20123;-64
2021/01/12 09:09:31;;;;;;;7.80;1.20;;;;;;;4.79;98.54;100559.03;5059196;28;20056;-64
2021/01/12 09:11:59;;;;;;;11.88;1.23;;;;;;;4.71;98.62;100561.34;5059185;28;20068;-64
2021/01/12 09:14:27;;;;;;;4.50;1.00;;;;;;;4.74;98.64;100563.81;5057148;28;20053;-64
2021/01/12 09:16:58;;;;;;;8.50;1.48;;;;;;;4.71;98.82;100577.34;5057954;28;20293;-64
2021/01/12 09:19:34;;;;;;;4.82;1.02;;;;;;;4.65;99.01;100577.78;5058458;28;20056;-64
2021/01/12 09:22:08;;;;;;;2.63;1.33;;;;;;;4.64;98.96;100581.38;5060234;28;20520;-63
2021/01/12 09:24:34;;;;;;;6.35;1.50;;;;;;;4.59;99.26;100573.72;5058131;28;20048;-63
2021/01/12 09:27:00;;;;;;;3.78;1.33;;;;;;;4.70;99.02;100586.31;5061488;28;20045;-63
2021/01/12 09:29:27;;;;;;;6.22;2.00;;;;;;;4.71;99.09;100590.66;5059996;28;20197;-63
2021/01/12 09:31:53;;;;;;;7.20;1.60;;;;;;;4.71;99.20;100598.66;5076573;22;20490;-63
2021/01/12 09:34:20;;;;;;;6.20;1.67;;;;;;;4.70;99.26;100602.31;5055024;28;20064;-63
2021/01/12 09:36:47;;;;;;;6.07;1.40;;;;;;;4.71;99.24;100604.88;5057030;28;20052;-62
2021/01/12 09:39:13;;;;;;;5.38;1.30;;;;;;;4.62;98.96;100617.97;5059603;28;20063;-62
2021/01/12 09:41:40;;;;;;;6.20;1.15;;;;;;;4.46;98.60;100626.13;5061492;28;20048;-63
2021/01/12 09:44:06;;;;;;;3.97;1.00;;;;;;;4.44;98.39;100622.72;5056366;28;20052;-64
2021/01/12 09:46:32;;;;;;;4.47;0.98;;;;;;;4.27;98.31;100618.50;5061183;28;20044;-63
2021/01/12 09:48:58;;;;;;;6.55;0.73;;;;;;;4.31;98.18;100633.34;5058922;28;20107;-62
2021/01/12 09:51:25;;;;;;;2.92;0.70;;;;;;;4.33;97.75;100623.47;5060973;28;20044;-63
2021/01/12 09:53:52;;;;;;;6.70;1.27;;;;;;;4.38;97.58;100631.97;5058971;28;20052;-65
2021/01/12 09:56:20;;;;;;;1.67;0.70;;;;;;;4.38;97.68;100639.97;5059255;28;20060;-64
2021/01/12 09:58:46;;;;;;;7.53;1.10;;;;;;;4.33;97.28;100640.28;5058796;28;20418;-63
2021/01/12 10:01:14;;;;;;;8.50;1.00;;;;;;;4.24;96.82;100645.34;5056673;28;20049;-63
2021/01/12 10:03:40;;;;;;;7.43;0.90;;;;;;;4.23;96.63;100663.16;5058750;28;20741;-64
2021/01/12 10:06:06;;;;;;;9.50;1.30;;;;;;;4.21;96.69;100671.25;5058530;28;20547;-62
2021/01/12 10:08:32;;;;;;;4.18;1.42;;;;;;;4.21;96.09;100671.25;5057546;28;20053;-63
2021/01/12 10:10:59;;;;;;;4.85;1.20;;;;;;;4.20;96.26;100682.00;5058558;28;20048;-63
2021/01/12 10:13:25;;;;;;;7.90;0.98;;;;;;;4.18;96.06;100675.91;5058747;28;20560;-63
2021/01/12 10:15:51;;;;;;;5.53;1.70;;;;;;;4.26;95.39;100683.41;5058625;28;20061;-64
2021/01/12 10:18:17;;;;;;;7.82;1.48;;;;;;;4.27;95.49;100691.31;5057290;28;20098;-63
2021/01/12 10:20:43;;;;;;;7.57;1.30;;;;;;;4.30;95.50;100696.44;5056802;28;20126;-63
2021/01/12 10:23:09;;;;;;;7.72;1.30;;;;;;;4.31;95.04;100691.97;5054895;28;20049;-64
2021/01/12 10:25:36;;;;;;;7.88;1.48;;;;;;;4.31;95.19;100700.78;5057226;28;20048;-64
2021/01/12 10:28:04;;;;;;;6.07;1.25;;;;;;;4.29;95.27;100697.38;5057166;28;20053;-63
2021/01/12 10:30:31;;;;;;;4.82;0.88;;;;;;;4.33;94.91;100700.72;5058467;28;20118;-65
2021/01/12 10:32:57;;;;;;;5.72;1.10;;;;;;;4.33;94.78;100700.72;5059955;28;20059;-64
2021/01/12 10:35:23;;;;;;;5.72;1.00;;;;;;;4.34;94.14;100713.06;5055721;28;20052;-64
2021/01/12 10:37:50;;;;;;;2.22;0.98;;;;;;;4.43;93.92;100708.94;5056967;28;20048;-64
2021/01/12 10:40:17;;;;;;;4.05;0.80;;;;;;;4.36;93.89;100709.34;5057867;28;20406;-64
2021/01/12 10:42:44;;;;;;;4.13;1.10;;;;;;;4.35;93.48;100714.78;5058113;28;20048;-64
2021/01/12 10:45:13;;;;;;;5.80;1.15;;;;;;;4.36;93.22;100717.34;5058484;28;20048;-63
2021/01/12 10:47:43;;;;;;;6.72;1.20;;;;;;;4.39;93.03;100733.13;5057914;28;20413;-64
2021/01/12 10:50:12;;;;;;;4.90;1.00;;;;;;;4.48;93.16;100729.03;5058132;28;20087;-64
2021/01/12 10:52:38;;;;;;;4.30;0.95;;;;;;;4.51;92.68;100742.16;5058692;28;20098;-64
2021/01/12 10:55:04;;;;;;;3.47;0.90;;;;;;;4.41;92.17;100741.03;5056855;28;20456;-64
2021/01/12 10:57:30;;;;;;;4.57;1.00;;;;;;;4.43;92.32;100743.59;5057278;28;20045;-64
2021/01/12 10:59:58;;;;;;;7.28;1.23;;;;;;;4.47;92.15;100745.97;5056658;28;20437;-65
2021/01/12 11:02:24;;;;;;;3.60;0.82;;;;;;;4.44;91.13;100746.16;5056306;28;20044;-64
2021/01/12 11:04:50;;;;;;;2.35;0.80;;;;;;;4.43;90.31;100746.25;5058867;28;20045;-64
2021/01/12 11:07:16;;;;;;;10.48;1.52;;;;;;;4.47;90.00;100750.44;5056786;28;20052;-65
2021/01/12 11:09:42;;;;;;;8.48;1.27;;;;;;;4.54;89.51;100763.25;5058651;28;20044;-65
2021/01/12 11:12:10;;;;;;;9.15;1.30;;;;;;;4.55;89.04;100764.13;5057837;28;20539;-63
2021/01/12 11:14:37;;;;;;;4.85;0.93;;;;;;;4.52;88.54;100757.19;5057796;28;20759;-64
2021/01/12 11:17:03;;;;;;;9.70;1.38;;;;;;;4.48;87.63;100757.50;5056356;28;20055;-66
2021/01/12 11:19:31;;;;;;;4.22;0.98;;;;;;;4.49;86.68;100757.41;5058450;28;20132;-64
2021/01/12 11:21:57;;;;;;;5.32;1.23;;;;;;;4.46;85.67;100754.94;5059172;28;20044;-63
2021/01/12 11:24:26;;;;;;;6.55;1.00;;;;;;;4.54;85.00;100762.41;5057342;28;20063;-64
2021/01/12 11:26:53;;;;;;;5.10;0.90;;;;;;;4.54;85.35;100765.94;5057954;28;20459;-63
2021/01/12 11:29:21;;;;;;;6.38;1.10;;;;;;;4.56;85.33;100766.72;5056700;28;20084;-64